createdAt,value
2023-03-06T00:00:35.334Z,8.77
2023-03-06T00:03:02.639Z,8.53
2023-03-06T00:05:29.625Z,8.97
2023-03-06T00:07:56.371Z,9.37
2023-03-06T00:10:28.886Z,9.07
2023-03-06T00:13:04.114Z,8.93
2023-03-06T00:15:31.400Z,8.93
2023-03-06T00:17:58.599Z,9.53
2023-03-06T00:20:26.370Z,8.80
2023-03-06T00:22:53.125Z,8.27
2023-03-06T00:25:21.369Z,9.13
2023-03-06T00:27:48.764Z,9.70
2023-03-06T00:30:19.187Z,9.50
2023-03-06T00:32:45.949Z,8.60
2023-03-06T00:35:13.498Z,9.20
2023-03-06T00:37:40.895Z,9.23
2023-03-06T00:40:11.034Z,10.00
2023-03-06T00:42:37.759Z,9.40
2023-03-06T00:45:04.909Z,9.43
2023-03-06T00:47:32.039Z,9.33
2023-03-06T00:49:58.699Z,10.00
2023-03-06T00:52:25.943Z,9.57
2023-03-06T00:54:52.746Z,9.20
2023-03-06T00:57:19.453Z,10.70
2023-03-06T00:59:46.527Z,9.13
2023-03-06T01:02:13.444Z,9.37
2023-03-06T01:04:40.540Z,9.90
2023-03-06T01:07:07.279Z,9.63
2023-03-06T01:09:33.941Z,9.77
2023-03-06T01:12:00.971Z,10.63
2023-03-06T01:14:28.090Z,9.93
2023-03-06T01:16:55.167Z,12.00
2023-03-06T01:19:22.314Z,10.77
2023-03-06T01:21:49.448Z,11.07
2023-03-06T01:24:16.162Z,10.97
2023-03-06T01:26:43.263Z,11.17
2023-03-06T01:29:10.407Z,10.83
2023-03-06T01:31:37.534Z,9.90
2023-03-06T01:34:04.673Z,10.67
2023-03-06T01:36:31.784Z,10.30
2023-03-06T01:38:58.861Z,10.83
2023-03-06T01:41:25.757Z,10.50
2023-03-06T01:43:52.890Z,11.73
2023-03-06T01:46:28.728Z,11.10
2023-03-06T01:49:12.608Z,11.43
2023-03-06T01:51:48.327Z,10.93
2023-03-06T01:54:24.419Z,11.83
2023-03-06T01:56:55.880Z,10.87
2023-03-06T01:59:24.691Z,11.77
2023-03-06T02:01:51.457Z,12.63
2023-03-06T02:04:18.730Z,12.40
2023-03-06T02:06:47.502Z,12.60
2023-03-06T02:09:14.873Z,12.90
2023-03-06T02:11:44.065Z,13.43
2023-03-06T02:14:14.288Z,13.20
2023-03-06T02:16:41.807Z,14.30
2023-03-06T02:19:24.421Z,14.37
2023-03-06T02:21:51.231Z,15.10
2023-03-06T02:24:38.810Z,14.43
2023-03-06T02:27:07.483Z,14.73
2023-03-06T02:29:34.219Z,14.40
2023-03-06T02:32:01.416Z,15.40
2023-03-06T02:34:28.570Z,15.40
2023-03-06T02:37:02.558Z,15.67
2023-03-06T02:39:33.994Z,15.30
2023-03-06T02:42:00.725Z,16.07
2023-03-06T02:44:28.608Z,16.47
2023-03-06T02:46:55.312Z,16.30
2023-03-06T02:49:22.389Z,16.50
2023-03-06T02:51:49.681Z,18.03
2023-03-06T02:54:18.318Z,16.90
2023-03-06T02:56:45.474Z,17.67
2023-03-06T02:59:12.712Z,18.30
2023-03-06T03:01:39.417Z,17.77
2023-03-06T03:04:06.185Z,18.27
2023-03-06T03:06:33.345Z,19.10
2023-03-06T03:09:00.007Z,18.43
2023-03-06T03:11:27.128Z,19.53
2023-03-06T03:13:54.176Z,18.57
2023-03-06T03:16:21.351Z,20.43
2023-03-06T03:18:48.254Z,19.87
2023-03-06T03:21:16.133Z,20.30
2023-03-06T03:23:43.066Z,20.80
2023-03-06T03:26:21.174Z,20.03
2023-03-06T03:28:47.915Z,21.47
2023-03-06T03:31:15.052Z,20.80
2023-03-06T03:33:42.384Z,20.13
2023-03-06T03:36:09.527Z,20.60
2023-03-06T03:38:36.289Z,21.00
2023-03-06T03:41:04.057Z,21.13
2023-03-06T03:43:31.235Z,22.00
2023-03-06T03:45:57.897Z,22.77
2023-03-06T03:48:24.606Z,21.97
2023-03-06T03:50:51.684Z,23.10
2023-03-06T03:53:18.752Z,21.30
2023-03-06T03:55:48.210Z,21.60
2023-03-06T03:58:14.896Z,22.40
2023-03-06T04:00:41.976Z,21.30
2023-03-06T04:03:08.682Z,23.47
2023-03-06T04:05:35.868Z,22.47
2023-03-06T04:08:03.203Z,22.23
2023-03-06T04:10:30.689Z,21.10
2023-03-06T04:12:57.881Z,21.30
2023-03-06T04:15:24.707Z,21.43
2023-03-06T04:17:51.499Z,19.77
2023-03-06T04:20:18.686Z,20.57
2023-03-06T04:22:45.324Z,21.50
2023-03-06T04:25:12.399Z,21.27
2023-03-06T04:27:39.258Z,21.00
2023-03-06T04:30:07.068Z,21.23
2023-03-06T04:32:33.863Z,20.33
2023-03-06T04:35:01.017Z,20.13
2023-03-06T04:37:28.306Z,21.90
2023-03-06T04:39:54.988Z,22.10
2023-03-06T04:42:22.100Z,22.50
2023-03-06T04:44:48.833Z,22.90
2023-03-06T04:47:18.737Z,21.40
2023-03-06T04:49:46.174Z,21.93
2023-03-06T04:52:13.167Z,21.57
2023-03-06T04:54:40.290Z,21.67
2023-03-06T04:57:07.364Z,22.13
2023-03-06T04:59:34.465Z,22.67
2023-03-06T05:02:01.589Z,22.60
2023-03-06T05:04:28.686Z,21.80
2023-03-06T05:06:55.581Z,23.17
2023-03-06T05:09:22.733Z,22.43
2023-03-06T05:11:49.398Z,23.13
2023-03-06T05:14:16.539Z,23.10
2023-03-06T05:16:43.680Z,22.77
2023-03-06T05:19:10.435Z,23.27
2023-03-06T05:21:37.546Z,23.17
2023-03-06T05:24:04.667Z,23.50
2023-03-06T05:26:31.986Z,21.93
2023-03-06T05:28:58.715Z,22.83
2023-03-06T05:31:25.800Z,22.47
2023-03-06T05:33:52.862Z,23.03
2023-03-06T05:36:19.934Z,23.33
2023-03-06T05:38:47.013Z,23.70
2023-03-06T05:41:14.181Z,23.73
2023-03-06T05:43:41.349Z,22.73
2023-03-06T05:46:08.942Z,24.47
2023-03-06T05:48:36.395Z,25.57
2023-03-06T05:51:04.540Z,23.43
2023-03-06T05:53:31.856Z,23.30
2023-03-06T05:56:00.923Z,24.20
2023-03-06T05:58:28.916Z,27.10
2023-03-06T06:00:56.132Z,26.03
2023-03-06T06:03:23.437Z,23.97
2023-03-06T06:05:51.008Z,23.90
2023-03-06T06:08:17.726Z,22.90
2023-03-06T06:10:44.684Z,27.03
2023-03-06T06:13:11.765Z,23.70
2023-03-06T06:15:38.890Z,22.97
2023-03-06T06:18:05.985Z,23.63
2023-03-06T06:20:33.134Z,24.27
2023-03-06T06:23:00.314Z,23.57
2023-03-06T06:25:27.409Z,23.57
2023-03-06T06:27:57.742Z,23.53
2023-03-06T06:30:25.074Z,24.50
2023-03-06T06:32:52.141Z,23.67
2023-03-06T06:35:19.404Z,24.87
2023-03-06T06:37:46.611Z,21.83
2023-03-06T06:40:13.585Z,22.67
2023-03-06T06:42:40.716Z,21.70
2023-03-06T06:45:10.321Z,21.17
2023-03-06T06:47:41.596Z,20.80
2023-03-06T06:50:12.702Z,22.97
2023-03-06T06:52:39.429Z,20.90
2023-03-06T06:55:07.150Z,22.40
2023-03-06T06:57:34.166Z,21.73
2023-03-06T07:00:00.835Z,21.80
2023-03-06T07:02:27.727Z,22.73
2023-03-06T07:05:04.230Z,23.50
2023-03-06T07:07:36.186Z,22.97
2023-03-06T07:10:06.736Z,21.07
2023-03-06T07:12:34.971Z,20.67
2023-03-06T07:15:01.728Z,20.17
2023-03-06T07:17:28.663Z,19.53
2023-03-06T07:19:55.359Z,20.57
2023-03-06T07:22:22.078Z,21.17
2023-03-06T07:24:48.821Z,20.93
2023-03-06T07:27:15.558Z,21.03
2023-03-06T07:29:45.392Z,20.53
2023-03-06T07:32:12.276Z,20.83
2023-03-06T07:34:39.025Z,20.33
2023-03-06T07:37:05.806Z,19.17
2023-03-06T07:39:32.472Z,20.63
2023-03-06T07:41:59.245Z,20.13
2023-03-06T07:44:30.529Z,20.03
2023-03-06T07:46:57.461Z,20.03
2023-03-06T07:49:24.161Z,19.37
2023-03-06T07:51:50.814Z,18.73
2023-03-06T07:54:17.550Z,19.43
2023-03-06T07:56:44.220Z,19.93
2023-03-06T07:59:11.714Z,19.90
2023-03-06T08:01:40.187Z,19.77
2023-03-06T08:04:07.110Z,20.63
2023-03-06T08:06:34.392Z,21.43
2023-03-06T08:09:01.496Z,20.03
2023-03-06T08:11:30.050Z,20.87
2023-03-06T08:13:57.897Z,20.83
2023-03-06T08:16:27.278Z,21.43
2023-03-06T08:18:54.742Z,20.60
2023-03-06T08:21:24.870Z,20.50
2023-03-06T08:23:51.988Z,19.53
2023-03-06T08:26:22.020Z,19.10
2023-03-06T08:28:49.248Z,22.53
2023-03-06T08:31:33.186Z,21.80
2023-03-06T08:34:02.512Z,22.00
2023-03-06T08:36:29.616Z,21.27
2023-03-06T08:38:57.075Z,19.53
2023-03-06T08:41:24.351Z,21.80
2023-03-06T08:43:51.589Z,20.07
2023-03-06T08:46:21.247Z,21.30
2023-03-06T08:48:48.231Z,22.70
2023-03-06T08:51:15.890Z,21.53
2023-03-06T08:53:44.238Z,21.17
2023-03-06T08:56:28.480Z,22.60
2023-03-06T08:58:57.795Z,22.80
2023-03-06T09:01:27.668Z,23.10
2023-03-06T09:03:56.384Z,21.77
2023-03-06T09:06:23.701Z,21.60
2023-03-06T09:08:54.582Z,20.60
2023-03-06T09:11:22.621Z,21.70
2023-03-06T09:13:49.664Z,21.00
2023-03-06T09:16:16.462Z,20.17
2023-03-06T09:18:43.151Z,20.80
2023-03-06T09:21:10.302Z,20.60
2023-03-06T09:23:39.632Z,19.80
2023-03-06T09:26:07.584Z,18.67
2023-03-06T09:28:39.254Z,18.07
2023-03-06T09:31:13.665Z,18.80
2023-03-06T09:33:40.647Z,17.87
2023-03-06T09:36:08.847Z,16.83
2023-03-06T09:38:36.062Z,18.03
2023-03-06T09:41:24.145Z,16.63
2023-03-06T09:43:54.554Z,18.03
2023-03-06T09:46:35.002Z,17.03
2023-03-06T09:49:20.691Z,17.47
2023-03-06T09:51:52.259Z,17.40
2023-03-06T09:54:24.425Z,15.67
2023-03-06T09:56:51.544Z,16.77
2023-03-06T09:59:22.483Z,17.53
2023-03-06T10:02:02.682Z,17.20
2023-03-06T10:04:41.292Z,18.50
2023-03-06T10:07:19.807Z,17.57
2023-03-06T10:10:05.613Z,17.40
2023-03-06T10:13:03.548Z,17.30
2023-03-06T10:15:35.959Z,16.47
2023-03-06T10:18:03.827Z,18.33
2023-03-06T10:21:16.955Z,16.93
2023-03-06T10:24:04.974Z,17.33
2023-03-06T10:26:48.876Z,16.70
2023-03-06T10:29:39.224Z,17.50
2023-03-06T10:32:29.076Z,16.73
2023-03-06T10:35:00.613Z,16.93
2023-03-06T10:37:31.649Z,18.00
2023-03-06T10:40:14.979Z,17.87
2023-03-06T10:42:41.650Z,17.40
2023-03-06T10:45:10.243Z,16.93
2023-03-06T10:47:38.394Z,16.17
2023-03-06T10:50:27.895Z,15.57
2023-03-06T10:53:18.863Z,15.60
2023-03-06T10:55:56.141Z,14.93
2023-03-06T10:58:33.177Z,15.43
2023-03-06T11:01:21.102Z,16.77
2023-03-06T11:03:48.217Z,13.83
2023-03-06T11:06:30.261Z,14.50
2023-03-06T11:09:24.276Z,15.07
2023-03-06T11:11:51.686Z,14.50
2023-03-06T11:14:22.734Z,14.33
2023-03-06T11:16:54.365Z,15.23
2023-03-06T11:19:26.493Z,14.97
2023-03-06T11:22:03.161Z,14.77
2023-03-06T11:24:41.008Z,16.20
2023-03-06T11:27:36.077Z,15.33
2023-03-06T11:30:16.002Z,16.47
2023-03-06T11:32:55.320Z,16.60
2023-03-06T11:35:51.783Z,16.60
2023-03-06T11:38:35.731Z,15.83
2023-03-06T11:41:13.811Z,17.10
2023-03-06T11:44:23.069Z,17.63
2023-03-06T11:47:19.419Z,16.73
2023-03-06T11:49:52.569Z,16.80
2023-03-06T11:52:32.136Z,16.87
2023-03-06T11:54:59.193Z,15.73
2023-03-06T11:57:35.281Z,14.80
2023-03-06T12:00:32.852Z,15.20
2023-03-06T12:03:23.194Z,14.20
2023-03-06T12:06:18.911Z,16.20
2023-03-06T12:09:12.791Z,15.27
2023-03-06T12:11:39.853Z,13.27
2023-03-06T12:14:41.619Z,11.47
2023-03-06T12:17:26.469Z,11.57
2023-03-06T12:20:11.956Z,11.57
2023-03-06T12:23:15.322Z,12.10
2023-03-06T12:26:14.483Z,12.10
2023-03-06T12:29:04.995Z,12.80
2023-03-06T12:31:49.994Z,12.57
2023-03-06T12:34:47.500Z,13.00
2023-03-06T12:37:26.016Z,12.90
2023-03-06T12:40:11.391Z,14.63
2023-03-06T12:43:02.502Z,14.60
2023-03-06T12:45:39.571Z,13.50
2023-03-06T12:48:20.682Z,14.53
2023-03-06T12:50:48.788Z,14.80
2023-03-06T12:53:28.138Z,16.00
2023-03-06T12:55:55.816Z,15.27
2023-03-06T12:58:28.694Z,14.60
2023-03-06T13:01:04.186Z,14.50
2023-03-06T13:03:49.019Z,15.10
2023-03-06T13:06:45.055Z,15.17
2023-03-06T13:09:42.704Z,15.90
2023-03-06T13:12:38.348Z,13.30
2023-03-06T13:15:39.208Z,13.10
2023-03-06T13:18:21.430Z,14.27
2023-03-06T13:20:49.211Z,12.97
2023-03-06T13:23:34.518Z,12.80
2023-03-06T13:26:01.996Z,11.73
2023-03-06T13:28:40.807Z,12.10
2023-03-06T13:31:15.382Z,11.37
2023-03-06T13:33:56.051Z,11.47
2023-03-06T13:36:41.009Z,10.90
2023-03-06T13:39:11.879Z,8.93
2023-03-06T13:41:39.124Z,8.67
2023-03-06T13:44:23.921Z,9.73
2023-03-06T13:47:17.532Z,10.20
2023-03-06T13:49:46.857Z,10.70
2023-03-06T13:52:35.843Z,11.10
2023-03-06T13:55:33.737Z,11.90
2023-03-06T13:58:12.365Z,12.37
2023-03-06T14:01:09.298Z,13.20
2023-03-06T14:03:57.758Z,12.87
2023-03-06T14:06:37.332Z,13.90
2023-03-06T14:09:06.705Z,14.83
2023-03-06T14:11:35.295Z,13.30
2023-03-06T14:14:02.558Z,13.83
2023-03-06T14:16:48.885Z,15.13
2023-03-06T14:19:18.147Z,14.30
2023-03-06T14:21:44.770Z,12.57
2023-03-06T14:24:17.733Z,13.23
2023-03-06T14:26:50.884Z,13.87
2023-03-06T14:29:26.359Z,13.37
2023-03-06T14:31:58.167Z,13.00
2023-03-06T14:34:29.553Z,12.53
2023-03-06T14:36:58.914Z,12.40
2023-03-06T14:39:41.687Z,13.63
2023-03-06T14:42:17.578Z,13.13
2023-03-06T14:44:45.177Z,13.70
2023-03-06T14:47:32.104Z,14.60
2023-03-06T14:50:30.512Z,14.57
2023-03-06T14:52:59.237Z,14.90
2023-03-06T14:55:27.692Z,14.47
2023-03-06T14:57:57.756Z,14.20
2023-03-06T15:00:28.456Z,14.60
2023-03-06T15:02:57.538Z,14.53
2023-03-06T15:05:29.187Z,13.93
2023-03-06T15:08:01.948Z,14.77
2023-03-06T15:10:31.393Z,14.57
2023-03-06T15:13:21.218Z,14.70
2023-03-06T15:16:04.630Z,14.77
2023-03-06T15:18:36.145Z,14.83
2023-03-06T15:21:18.328Z,15.73
2023-03-06T15:23:52.494Z,14.07
2023-03-06T15:26:36.724Z,14.47
2023-03-06T15:29:10.622Z,14.50
2023-03-06T15:31:44.651Z,15.13
2023-03-06T15:34:11.769Z,14.00
2023-03-06T15:36:43.064Z,14.20
2023-03-06T15:39:38.951Z,13.60
2023-03-06T15:42:18.286Z,13.83
2023-03-06T15:44:53.992Z,13.53
2023-03-06T15:47:21.891Z,14.30
2023-03-06T15:49:51.900Z,13.40
2023-03-06T15:52:19.854Z,13.40
2023-03-06T15:54:46.593Z,13.13
2023-03-06T15:57:23.785Z,11.97
2023-03-06T15:59:51.232Z,13.10
2023-03-06T16:02:22.561Z,11.90
2023-03-06T16:04:49.970Z,12.33
2023-03-06T16:07:17.126Z,11.93
2023-03-06T16:09:44.421Z,12.73
2023-03-06T16:12:17.266Z,12.30
2023-03-06T16:14:45.134Z,12.03
2023-03-06T16:17:13.032Z,12.53
2023-03-06T16:19:40.217Z,11.77
2023-03-06T16:22:07.016Z,11.63
2023-03-06T16:24:34.148Z,12.30
2023-03-06T16:27:02.158Z,12.60
2023-03-06T16:29:30.199Z,12.73
2023-03-06T16:31:58.795Z,13.23
2023-03-06T16:34:26.101Z,13.40
2023-03-06T16:36:53.283Z,12.53
2023-03-06T16:39:22.655Z,13.63
2023-03-06T16:41:49.918Z,14.33
2023-03-06T16:44:16.883Z,14.50
2023-03-06T16:46:45.812Z,14.37
2023-03-06T16:49:20.635Z,13.67
2023-03-06T16:51:47.454Z,13.77
2023-03-06T16:54:14.517Z,14.07
2023-03-06T16:56:42.062Z,14.70
2023-03-06T16:59:09.274Z,13.33
2023-03-06T17:01:36.471Z,14.80
2023-03-06T17:04:03.612Z,13.57
2023-03-06T17:06:30.728Z,13.67
2023-03-06T17:08:58.156Z,14.67
2023-03-06T17:11:25.283Z,14.87
2023-03-06T17:13:53.790Z,14.70
2023-03-06T17:16:20.791Z,14.07
2023-03-06T17:18:47.930Z,13.47
2023-03-06T17:21:17.757Z,14.33
2023-03-06T17:23:44.810Z,14.43
2023-03-06T17:26:20.547Z,15.13
2023-03-06T17:28:47.868Z,16.70
2023-03-06T17:31:23.017Z,16.67
2023-03-06T17:33:51.532Z,17.47
2023-03-06T17:36:19.296Z,16.63
2023-03-06T17:38:46.981Z,16.83
2023-03-06T17:41:14.487Z,16.77
2023-03-06T17:43:41.268Z,16.07
2023-03-06T17:46:10.562Z,16.47
2023-03-06T17:48:37.725Z,16.73
2023-03-06T17:51:05.036Z,16.53
2023-03-06T17:53:32.452Z,17.03
2023-03-06T17:55:59.633Z,16.57
2023-03-06T17:58:27.311Z,16.47
2023-03-06T18:00:54.863Z,17.70
2023-03-06T18:03:21.951Z,16.63
2023-03-06T18:05:58.388Z,15.73
2023-03-06T18:08:25.524Z,16.87
2023-03-06T18:10:52.655Z,16.50
2023-03-06T18:13:19.992Z,17.07
2023-03-06T18:15:46.692Z,17.33
2023-03-06T18:18:13.444Z,17.67
2023-03-06T18:20:44.707Z,18.17
2023-03-06T18:23:13.210Z,18.23
2023-03-06T18:25:40.129Z,18.50
2023-03-06T18:28:06.999Z,18.10
2023-03-06T18:30:39.058Z,16.77
2023-03-06T18:33:06.179Z,18.17
2023-03-06T18:35:36.760Z,17.17
2023-03-06T18:38:03.521Z,17.87
2023-03-06T18:40:30.269Z,16.97
2023-03-06T18:42:57.372Z,15.87
2023-03-06T18:45:24.517Z,16.67
2023-03-06T18:47:51.276Z,15.53
2023-03-06T18:50:17.945Z,16.57
2023-03-06T18:52:44.926Z,15.90
2023-03-06T18:55:12.163Z,14.97
2023-03-06T18:57:39.533Z,14.60
2023-03-06T19:00:09.512Z,15.50
2023-03-06T19:02:36.293Z,15.60
2023-03-06T19:05:03.434Z,14.93
2023-03-06T19:07:30.143Z,15.03
2023-03-06T19:09:56.791Z,15.93
2023-03-06T19:12:24.637Z,15.60
2023-03-06T19:14:51.385Z,14.97
2023-03-06T19:17:18.043Z,16.00
2023-03-06T19:19:44.790Z,14.83
2023-03-06T19:22:11.444Z,14.07
2023-03-06T19:24:38.145Z,13.20
2023-03-06T19:27:04.949Z,13.83
2023-03-06T19:29:32.522Z,14.80
2023-03-06T19:31:59.444Z,13.77
2023-03-06T19:34:26.327Z,13.83
2023-03-06T19:36:53.103Z,13.60
2023-03-06T19:39:19.855Z,14.23
2023-03-06T19:41:47.741Z,12.43
2023-03-06T19:44:16.119Z,13.33
2023-03-06T19:46:43.481Z,14.07
2023-03-06T19:49:16.606Z,14.10
2023-03-06T19:51:43.632Z,13.20
2023-03-06T19:54:12.268Z,13.73
2023-03-06T19:56:39.046Z,14.60
2023-03-06T19:59:06.152Z,12.93
2023-03-06T20:01:34.227Z,13.07
2023-03-06T20:04:01.322Z,13.63
2023-03-06T20:06:31.313Z,14.87
2023-03-06T20:08:58.412Z,13.60
2023-03-06T20:11:27.168Z,13.37
2023-03-06T20:13:54.174Z,12.53
2023-03-06T20:16:20.898Z,12.70
2023-03-06T20:18:47.721Z,11.97
2023-03-06T20:21:15.275Z,13.17
2023-03-06T20:23:42.745Z,12.93
2023-03-06T20:26:12.473Z,12.33
2023-03-06T20:28:40.293Z,12.20
2023-03-06T20:31:18.874Z,13.03
2023-03-06T20:33:47.008Z,11.83
2023-03-06T20:36:16.349Z,12.40
2023-03-06T20:38:43.773Z,12.53
2023-03-06T20:41:15.758Z,11.53
2023-03-06T20:43:43.005Z,10.87
2023-03-06T20:46:11.357Z,11.70
2023-03-06T20:48:38.877Z,11.80
2023-03-06T20:51:10.853Z,11.17
2023-03-06T20:53:37.634Z,11.80
2023-03-06T20:56:05.006Z,11.57
2023-03-06T20:58:32.557Z,12.60
2023-03-06T21:01:01.391Z,12.03
2023-03-06T21:03:29.591Z,11.67
2023-03-06T21:05:56.579Z,12.07
2023-03-06T21:08:23.413Z,12.43
2023-03-06T21:10:50.617Z,12.27
2023-03-06T21:13:17.730Z,14.63
2023-03-06T21:15:47.278Z,12.60
2023-03-06T21:18:14.254Z,12.50
2023-03-06T21:20:42.067Z,13.60
2023-03-06T21:23:09.104Z,12.83
2023-03-06T21:25:36.221Z,13.77
2023-03-06T21:28:03.117Z,12.83
2023-03-06T21:30:30.171Z,13.43
2023-03-06T21:32:57.036Z,14.33
2023-03-06T21:35:23.797Z,13.63
2023-03-06T21:37:50.670Z,14.27
2023-03-06T21:40:17.492Z,13.77
2023-03-06T21:42:44.246Z,14.50
2023-03-06T21:45:11.955Z,14.73
2023-03-06T21:47:40.690Z,14.70
2023-03-06T21:50:09.861Z,15.87
2023-03-06T21:52:36.860Z,14.67
2023-03-06T21:55:03.966Z,14.87
2023-03-06T21:57:30.736Z,13.90
2023-03-06T21:59:57.443Z,14.80
2023-03-06T22:02:24.229Z,14.70
2023-03-06T22:04:54.019Z,14.73
2023-03-06T22:07:20.712Z,14.67
2023-03-06T22:09:47.614Z,14.17
2023-03-06T22:12:14.480Z,14.70
2023-03-06T22:14:43.580Z,15.20
2023-03-06T22:17:10.302Z,15.63
2023-03-06T22:19:36.976Z,15.70
2023-03-06T22:22:04.475Z,14.17
2023-03-06T22:24:33.974Z,15.47
2023-03-06T22:27:00.779Z,15.23
2023-03-06T22:29:27.426Z,15.73
2023-03-06T22:31:54.126Z,15.67
2023-03-06T22:34:20.845Z,15.10
2023-03-06T22:36:48.267Z,15.53
2023-03-06T22:39:15.289Z,15.67
2023-03-06T22:41:41.930Z,16.50
2023-03-06T22:44:14.898Z,15.77
2023-03-06T22:46:41.902Z,17.10
2023-03-06T22:49:11.417Z,16.87
2023-03-06T22:51:38.541Z,17.20
2023-03-06T22:54:06.672Z,15.87
2023-03-06T22:56:33.728Z,16.93
2023-03-06T22:59:00.844Z,16.70
2023-03-06T23:01:30.471Z,16.57
2023-03-06T23:03:59.402Z,17.20
2023-03-06T23:06:30.453Z,16.73
2023-03-06T23:09:20.532Z,16.33
2023-03-06T23:11:50.680Z,16.83
2023-03-06T23:14:18.784Z,17.47
2023-03-06T23:16:45.571Z,16.33
2023-03-06T23:19:12.671Z,15.97
2023-03-06T23:21:39.324Z,17.47
2023-03-06T23:24:06.874Z,16.73
2023-03-06T23:26:34.310Z,16.80
2023-03-06T23:29:01.987Z,16.93
2023-03-06T23:31:30.551Z,15.03
2023-03-06T23:34:01.810Z,15.07
2023-03-06T23:36:29.710Z,14.77
2023-03-06T23:38:57.060Z,14.67
2023-03-06T23:41:24.834Z,15.00
2023-03-06T23:43:54.083Z,14.33
2023-03-06T23:46:21.800Z,15.63
2023-03-06T23:48:48.514Z,13.63
2023-03-06T23:51:17.827Z,14.40
2023-03-06T23:53:45.815Z,14.10
2023-03-06T23:56:13.445Z,14.00
2023-03-06T23:58:40.833Z,13.20
